Time;durP1;ratioP1;P1;durP2;ratioP2;P2;SDS_P1;SDS_P2;PMS_P1;PMS_P2;Temp;Humidity;BMP_temperature;BMP_pressure;BME280_temperature;BME280_humidity;BME280_pressure;Samples;Min_cycle;Max_cycle;Signal;HPM_P1;HPM_P2
2023/11/01 00:01:39;;;;;;;;;;;;;;;11.91;100.00;99273.63;5097166;28;20363;-79
2023/11/01 00:04:23;;;;;;;;;;;;;;;11.92;100.00;99266.09;5077035;28;19923;-79
2023/11/01 00:07:07;;;;;;;;;;;;;;;11.94;100.00;99252.66;5096187;28;19935;-79
2023/11/01 00:09:51;;;;;;;;;;;;;;;11.92;100.00;99247.41;5078332;28;19960;-79
2023/11/01 00:12:35;;;;;;;;;;;;;;;11.92;100.00;99235.47;5075138;28;20009;-79
2023/11/01 00:15:19;;;;;;;;;;;;;;;11.92;100.00;99227.13;5084280;28;19954;-79
2023/11/01 00:18:03;;;;;;;;;;;;;;;11.93;100.00;99226.81;5097162;28;19919;-79
2023/11/01 00:20:47;;;;;;;;;;;;;;;11.93;100.00;99218.47;5097610;28;20414;-79
2023/11/01 00:23:31;;;;;;;;;;;;;;;11.93;100.00;99206.53;5069424;28;19958;-80
2023/11/01 00:26:16;;;;;;;;;;;;;;;11.93;100.00;99193.44;5096708;28;19999;-79
2023/11/01 00:29:00;;;;;;;;;;;;;;;11.92;100.00;99185.41;5096828;28;19919;-79
2023/11/01 00:31:44;;;;;;;;;;;;;;;11.91;100.00;99179.03;5080320;28;19919;-79
2023/11/01 00:34:28;;;;;;;;;;;;;;;11.90;100.00;99171.84;5109597;28;19934;-79
2023/11/01 00:37:12;;;;;;;;;;;;;;;11.90;100.00;99176.59;5077078;28;20009;-80
2023/11/01 00:39:56;;;;;;;;;;;;;;;11.88;100.00;99171.34;5070386;28;19920;-79
2023/11/01 00:42:40;;;;;;;;;;;;;;;11.87;100.00;99172.53;5080424;28;19919;-80
2023/11/01 00:45:24;;;;;;;;;;;;;;;11.84;100.00;99168.41;5094174;28;19924;-79
2023/11/01 00:48:08;;;;;;;;;;;;;;;11.84;100.00;99162.84;5090775;28;19954;-80
2023/11/01 00:50:52;;;;;;;;;;;;;;;11.83;100.00;99155.63;5080743;28;19919;-79
2023/11/01 00:53:36;;;;;;;;;;;;;;;11.82;100.00;99154.00;5091737;28;19939;-79
2023/11/01 00:56:20;;;;;;;;;;;;;;;11.81;100.00;99144.06;5090688;28;19962;-80
2023/11/01 00:59:05;;;;;;;;;;;;;;;11.81;100.00;99141.28;5090294;28;20256;-79
2023/11/01 01:01:49;;;;;;;;;;;;;;;11.80;100.00;99147.97;5120782;28;20075;-79
2023/11/01 01:04:33;;;;;;;;;;;;;;;11.78;100.00;99141.94;5091798;28;20359;-80
2023/11/01 01:07:17;;;;;;;;;;;;;;;11.80;100.00;99134.06;5087459;28;20329;-79
2023/11/01 01:10:01;;;;;;;;;;;;;;;11.78;100.00;99130.81;5083326;28;19949;-79
2023/11/01 01:12:45;;;;;;;;;;;;;;;11.78;100.00;99118.84;5094986;28;19920;-79
2023/11/01 01:15:29;;;;;;;;;;;;;;;11.78;100.00;99118.84;5074314;28;20002;-79
2023/11/01 01:18:14;;;;;;;;;;;;;;;11.77;100.00;99118.03;5100521;28;20030;-79
2023/11/01 01:20:58;;;;;;;;;;;;;;;11.78;100.00;99108.56;5085178;28;20379;-79
2023/11/01 01:23:42;;;;;;;;;;;;;;;11.78;100.00;99100.22;5090281;28;19939;-79
2023/11/01 01:26:26;;;;;;;;;;;;;;;11.77;100.00;99101.34;5100143;28;19965;-80
2023/11/01 01:29:10;;;;;;;;;;;;;;;11.78;100.00;99103.00;5080752;28;20271;-79
2023/11/01 01:31:54;;;;;;;;;;;;;;;11.78;100.00;99075.19;5086073;28;19958;-80
2023/11/01 01:34:38;;;;;;;;;;;;;;;11.78;100.00;99069.63;5094135;28;19935;-79
2023/11/01 01:37:22;;;;;;;;;;;;;;;11.75;100.00;99070.28;5093809;28;19927;-80
2023/11/01 01:40:06;;;;;;;;;;;;;;;11.77;100.00;99045.72;5069332;28;19918;-79
2023/11/01 01:42:50;;;;;;;;;;;;;;;11.77;100.00;99056.84;5083985;28;19922;-80
2023/11/01 01:45:35;;;;;;;;;;;;;;;11.76;100.00;99051.63;5095918;28;19962;-79
2023/11/01 01:48:19;;;;;;;;;;;;;;;11.75;100.00;99031.34;5100087;28;19919;-80
2023/11/01 01:51:06;;;;;;;;;;;;;;;11.76;100.00;99037.72;5080345;28;20010;-80
2023/11/01 01:53:50;;;;;;;;;;;;;;;11.75;100.00;99024.97;5098531;28;19919;-79
2023/11/01 01:56:34;;;;;;;;;;;;;;;11.74;100.00;99007.47;5105721;28;19919;-80
2023/11/01 01:59:18;;;;;;;;;;;;;;;11.73;100.00;99005.84;5067460;28;19919;-80
2023/11/01 02:02:02;;;;;;;;;;;;;;;11.72;100.00;99001.41;5082750;28;20252;-80
2023/11/01 02:04:48;;;;;;;;;;;;;;;11.72;100.00;98990.28;5079191;28;20237;-79
2023/11/01 02:07:32;;;;;;;;;;;;;;;11.73;100.00;98982.75;5088321;28;19919;-80
2023/11/01 02:10:16;;;;;;;;;;;;;;;11.74;100.00;98965.75;5084415;28;20470;-80
2023/11/01 02:13:12;;;;;;;;;;;;;;;11.73;100.00;98978.03;5095734;28;19987;-79
2023/11/01 02:15:57;;;;;;;;;;;;;;;11.72;100.00;98970.03;5092766;28;19983;-79
2023/11/01 02:18:41;;;;;;;;;;;;;;;11.74;100.00;98967.72;5087280;28;19970;-80
2023/11/01 02:21:25;;;;;;;;;;;;;;;11.72;100.00;98956.91;5084703;28;20005;-80
2023/11/01 02:24:09;;;;;;;;;;;;;;;11.73;100.00;98963.28;5084543;28;20464;-79
2023/11/01 02:26:53;;;;;;;;;;;;;;;11.72;100.00;98951.34;5100339;28;19918;-80
2023/11/01 02:29:37;;;;;;;;;;;;;;;11.72;100.00;98948.56;5083588;28;19956;-79
2023/11/01 02:32:23;;;;;;;;;;;;;;;11.74;100.00;98934.34;5099196;28;19923;-79
2023/11/01 02:35:07;;;;;;;;;;;;;;;11.74;100.00;98924.03;5093200;28;19919;-80
2023/11/01 02:37:51;;;;;;;;;;;;;;;11.77;100.00;98914.19;5105563;28;19931;-80
2023/11/01 02:40:35;;;;;;;;;;;;;;;11.76;100.00;98912.59;5078073;28;19970;-79
2023/11/01 02:43:19;;;;;;;;;;;;;;;11.77;100.00;98909.44;5078956;28;19919;-80
2023/11/01 02:46:03;;;;;;;;;;;;;;;11.82;100.00;98897.31;5093769;28;19923;-79
2023/11/01 02:48:47;;;;;;;;;;;;;;;11.82;100.00;98884.19;5098825;28;20413;-80
2023/11/01 02:51:31;;;;;;;;;;;;;;;11.83;100.00;98877.47;5098523;28;19927;-79
2023/11/01 02:54:15;;;;;;;;;;;;;;;11.85;100.00;98872.41;5092505;28;20338;-80
2023/11/01 02:56:59;;;;;;;;;;;;;;;11.85;100.00;98852.94;5089726;28;19924;-79
2023/11/01 02:59:44;;;;;;;;;;;;;;;11.87;100.00;98852.63;5084299;28;19934;-79
2023/11/01 03:02:28;;;;;;;;;;;;;;;11.88;100.00;98845.88;5086755;28;19990;-80
2023/11/01 03:05:12;;;;;;;;;;;;;;;11.90;100.00;98832.47;5098131;28;19925;-80
2023/11/01 03:07:56;;;;;;;;;;;;;;;11.91;100.00;98825.72;5083192;28;19919;-80
2023/11/01 03:10:40;;;;;;;;;;;;;;;11.91;100.00;98822.94;5086853;28;19959;-80
2023/11/01 03:13:24;;;;;;;;;;;;;;;11.92;100.00;98812.63;5086524;28;19950;-80
2023/11/01 03:16:08;;;;;;;;;;;;;;;11.93;100.00;98809.50;5100693;28;20006;-80
2023/11/01 03:18:52;;;;;;;;;;;;;;;11.96;100.00;98813.56;5098071;28;19973;-80
2023/11/01 03:21:37;;;;;;;;;;;;;;;11.94;100.00;98811.13;5110865;28;19920;-80
2023/11/01 03:24:21;;;;;;;;;;;;;;;11.96;100.00;98803.25;5093076;28;19974;-79
2023/11/01 03:27:05;;;;;;;;;;;;;;;11.98;100.00;98805.69;5091892;28;19972;-80
2023/11/01 03:29:50;;;;;;;;;;;;;;;11.98;100.00;98800.09;5091758;28;19927;-80
2023/11/01 03:32:34;;;;;;;;;;;;;;;11.98;100.00;98797.31;5109063;28;20054;-80
2023/11/01 03:35:18;;;;;;;;;;;;;;;11.99;100.00;98796.19;5075544;28;19927;-80
2023/11/01 03:38:02;;;;;;;;;;;;;;;11.96;100.00;98800.47;5078740;28;20368;-80
2023/11/01 03:40:46;;;;;;;;;;;;;;;11.96;100.00;98808.81;5078183;28;19923;-80
2023/11/01 03:43:30;;;;;;;;;;;;;;;11.97;100.00;98798.50;5077442;28;20432;-80
2023/11/01 03:46:14;;;;;;;;;;;;;;;11.98;100.00;98800.09;5084049;28;19919;-80
2023/11/01 03:48:58;;;;;;;;;;;;;;;11.97;100.00;98806.84;5083078;28;21714;-80
2023/11/01 03:51:42;;;;;;;;;;;;;;;11.98;100.00;98800.09;5082940;28;19923;-80
2023/11/01 03:54:26;;;;;;;;;;;;;;;11.99;100.00;98810.91;5076983;28;19919;-80
2023/11/01 03:57:10;;;;;;;;;;;;;;;11.98;100.00;98822.38;5083229;28;19919;-79
2023/11/01 03:59:54;;;;;;;;;;;;;;;11.96;100.00;98830.28;5091628;28;20315;-80
2023/11/01 04:02:38;;;;;;;;;;;;;;;11.99;100.00;98857.41;5100961;28;19919;-79
2023/11/01 04:05:22;;;;;;;;;;;;;;;11.97;100.00;98843.00;5081827;28;19923;-80
2023/11/01 04:08:06;;;;;;;;;;;;;;;11.97;100.00;98826.31;5082526;28;19964;-79
2023/11/01 04:10:50;;;;;;;;;;;;;;;11.94;100.00;98857.63;5077141;28;19949;-79
2023/11/01 04:13:34;;;;;;;;;;;;;;;11.94;100.00;98849.25;5076749;28;19951;-79
2023/11/01 04:16:18;;;;;;;;;;;;;;;11.91;100.00;98844.41;5092689;28;20406;-80
2023/11/01 04:19:02;;;;;;;;;;;;;;;11.87;100.00;98849.84;5076960;28;19923;-79
2023/11/01 04:21:46;;;;;;;;;;;;;;;11.85;100.00;98847.38;5095912;28;19999;-79
2023/11/01 04:24:31;;;;;;;;;;;;;;;11.83;100.00;98838.53;5078695;28;19963;-79
2023/11/01 04:27:15;;;;;;;;;;;;;;;11.79;100.00;98842.38;5082174;28;20375;-80
2023/11/01 04:29:59;;;;;;;;;;;;;;;11.79;100.00;98847.94;5077992;28;19947;-80
2023/11/01 04:32:43;;;;;;;;;;;;;;;11.75;100.00;98842.22;5121801;27;19918;-80
2023/11/01 04:35:27;;;;;;;;;;;;;;;11.73;100.00;98840.94;5074851;28;20381;-79
2023/11/01 04:38:11;;;;;;;;;;;;;;;11.71;100.00;98844.06;5077323;28;20020;-79
2023/11/01 04:40:55;;;;;;;;;;;;;;;11.68;100.00;98838.38;5092229;28;19991;-79
2023/11/01 04:43:39;;;;;;;;;;;;;;;11.66;100.00;98837.91;5076769;28;20072;-79
2023/11/01 04:46:23;;;;;;;;;;;;;;;11.63;100.00;98836.63;5068229;28;19920;-79
2023/11/01 04:49:07;;;;;;;;;;;;;;;11.57;100.00;98824.09;5122814;28;19958;-79
2023/11/01 04:51:51;;;;;;;;;;;;;;;11.59;100.00;98827.34;5090728;28;19962;-79
2023/11/01 04:54:36;;;;;;;;;;;;;;;11.53;100.00;98817.56;5086785;28;20330;-79
2023/11/01 04:57:20;;;;;;;;;;;;;;;11.50;100.00;98807.13;5081420;28;20420;-79
2023/11/01 05:00:08;;;;;;;;;;;;;;;11.48;100.00;98799.16;5091494;28;20020;-80
2023/11/01 05:02:52;;;;;;;;;;;;;;;11.49;100.00;98794.41;5090284;28;19963;-79
2023/11/01 05:05:36;;;;;;;;;;;;;;;11.45;100.00;98799.00;5082830;28;20070;-79
2023/11/01 05:08:20;;;;;;;;;;;;;;;11.40;100.00;98786.97;5081446;28;19920;-79
2023/11/01 05:11:05;;;;;;;;;;;;;;;11.43;100.00;98802.16;5090434;28;19973;-79
2023/11/01 05:13:49;;;;;;;;;;;;;;;11.37;100.00;98790.41;5069836;28;20013;-79
2023/11/01 05:16:33;;;;;;;;;;;;;;;11.38;100.00;98791.22;5093848;28;20413;-79
2023/11/01 05:19:19;;;;;;;;;;;;;;;11.34;100.00;98774.44;5095949;28;20078;-79
2023/11/01 05:22:03;;;;;;;;;;;;;;;11.34;100.00;98768.06;5085003;28;20015;-79
2023/11/01 05:24:48;;;;;;;;;;;;;;;11.29;100.00;98765.50;5081838;28;20003;-79
2023/11/01 05:27:32;;;;;;;;;;;;;;;11.29;100.00;98760.75;5080162;28;20011;-79
2023/11/01 05:30:17;;;;;;;;;;;;;;;11.27;100.00;98757.47;5075624;28;19920;-79
2023/11/01 05:33:00;;;;;;;;;;;;;;;11.28;100.00;98755.50;5096006;28;19926;-79
2023/11/01 05:35:45;;;;;;;;;;;;;;;11.28;100.00;98761.91;5078102;28;19920;-79
2023/11/01 05:38:29;;;;;;;;;;;;;;;11.26;100.00;98758.66;5072207;28;19966;-79
2023/11/01 05:41:13;;;;;;;;;;;;;;;11.21;100.00;98758.84;5093728;28;20384;-79
2023/11/01 05:43:58;;;;;;;;;;;;;;;11.18;100.00;98753.97;5096286;28;20417;-79
2023/11/01 05:46:42;;;;;;;;;;;;;;;11.20;100.00;98748.91;5092491;28;19940;-79
2023/11/01 05:49:26;;;;;;;;;;;;;;;11.16;100.00;98748.75;5082172;28;19935;-79
2023/11/01 05:52:10;;;;;;;;;;;;;;;11.15;100.00;98736.03;5093648;28;19919;-79
2023/11/01 05:54:54;;;;;;;;;;;;;;;11.13;100.00;98720.84;5085631;28;19919;-79
2023/11/01 05:57:38;;;;;;;;;;;;;;;11.12;100.00;98702.56;5086651;28;19962;-79
2023/11/01 06:00:22;;;;;;;;;;;;;;;11.14;100.00;98697.44;5082315;28;19923;-79
2023/11/01 06:03:06;;;;;;;;;;;;;;;11.10;100.00;98688.19;5079904;28;19920;-79
2023/11/01 06:05:52;;;;;;;;;;;;;;;11.07;100.00;98686.91;5087446;28;19926;-79
2023/11/01 06:08:36;;;;;;;;;;;;;;;11.07;100.00;98683.31;5099737;28;19938;-79
2023/11/01 06:11:20;;;;;;;;;;;;;;;11.05;100.00;98672.53;5079665;28;20034;-79
2023/11/01 06:14:06;;;;;;;;;;;;;;;11.03;100.00;98676.81;5070336;28;19926;-79
2023/11/01 06:16:50;;;;;;;;;;;;;;;11.03;100.00;98660.97;5098492;28;19919;-79
2023/11/01 06:19:34;;;;;;;;;;;;;;;11.01;100.00;98659.69;5094781;28;19920;-79
2023/11/01 06:22:19;;;;;;;;;;;;;;;10.99;100.00;98653.66;5078889;28;19919;-79
2023/11/01 06:25:03;;;;;;;;;;;;;;;10.98;100.00;98649.25;5084933;28;19923;-79
2023/11/01 06:27:47;;;;;;;;;;;;;;;10.95;100.00;98639.66;5099072;28;19919;-79
2023/11/01 06:30:31;;;;;;;;;;;;;;;10.95;100.00;98637.69;5078951;28;19934;-79
2023/11/01 06:33:15;;;;;;;;;;;;;;;10.95;100.00;98629.34;5115883;27;19965;-79
2023/11/01 06:35:59;;;;;;;;;;;;;;;10.96;100.00;98628.19;5081955;28;19920;-79
2023/11/01 06:38:43;;;;;;;;;;;;;;;10.95;100.00;98628.56;5088202;28;19927;-79
2023/11/01 06:41:27;;;;;;;;;;;;;;;10.94;100.00;98638.81;5087005;28;19970;-78
2023/11/01 06:44:13;;;;;;;;;;;;;;;10.93;100.00;98669.72;5081537;28;19924;-79
2023/11/01 06:46:57;;;;;;;;;;;;;;;10.91;100.00;98686.72;5075743;28;19974;-79
2023/11/01 06:49:41;;;;;;;;;;;;;;;10.86;100.00;98700.81;5087071;28;19919;-79
2023/11/01 06:52:25;;;;;;;;;;;;;;;10.86;100.00;98705.56;5097082;28;19920;-79
2023/11/01 06:55:09;;;;;;;;;;;;;;;10.81;100.00;98712.16;5078970;28;19920;-79
2023/11/01 06:57:53;;;;;;;;;;;;;;;10.83;100.00;98723.72;5092549;28;19966;-79
2023/11/01 07:00:37;;;;;;;;;;;;;;;10.78;100.00;98720.31;5097574;28;19962;-79
2023/11/01 07:03:21;;;;;;;;;;;;;;;10.77;100.00;98713.97;5097899;28;19962;-79
2023/11/01 07:06:06;;;;;;;;;;;;;;;10.74;100.00;98723.78;5077834;28;19924;-79
2023/11/01 07:08:50;;;;;;;;;;;;;;;10.70;100.00;98708.97;5090599;28;19995;-79
2023/11/01 07:11:35;;;;;;;;;;;;;;;10.71;100.00;98693.91;5083873;28;19921;-79
2023/11/01 07:14:19;;;;;;;;;;;;;;;10.70;100.00;98692.31;5084015;28;19957;-79
2023/11/01 07:17:03;;;;;;;;;;;;;;;10.68;100.00;98671.59;5093419;28;19919;-79
2023/11/01 07:19:47;;;;;;;;;;;;;;;10.66;100.00;98676.66;5089326;28;20371;-79
2023/11/01 07:22:31;;;;;;;;;;;;;;;10.63;100.00;98674.56;5083016;28;19923;-79
2023/11/01 07:25:15;;;;;;;;;;;;;;;10.59;100.00;98690.28;5086778;28;19923;-80
2023/11/01 07:27:59;;;;;;;;;;;;;;;10.57;100.00;98692.59;5093729;28;19957;-79
2023/11/01 07:30:43;;;;;;;;;;;;;;;10.55;100.00;98697.66;5092665;28;20260;-79
2023/11/01 07:33:28;;;;;;;;;;;;;;;10.50;100.00;98705.03;5083817;28;19937;-79
2023/11/01 07:36:12;;;;;;;;;;;;;;;10.49;100.00;98691.47;5082843;28;19977;-79
2023/11/01 07:38:56;;;;;;;;;;;;;;;10.46;100.00;98704.06;5090867;28;19981;-79
2023/11/01 07:41:40;;;;;;;;;;;;;;;10.47;100.00;98710.44;5106266;28;19919;-79
2023/11/01 07:44:24;;;;;;;;;;;;;;;10.46;100.00;98709.63;5082252;28;19924;-79
2023/11/01 07:47:07;;;;;;;;;;;;;;;10.43;100.00;98707.53;5094412;28;19934;-79
2023/11/01 07:49:52;;;;;;;;;;;;;;;10.43;100.00;98721.41;5097544;28;20303;-79
2023/11/01 07:52:37;;;;;;;;;;;;;;;10.43;100.00;98709.50;5097255;28;20435;-79
2023/11/01 07:55:20;;;;;;;;;;;;;;;10.40;100.00;98713.75;5078857;28;19918;-79
2023/11/01 07:58:04;;;;;;;;;;;;;;;10.41;100.00;98712.59;5091881;28;19920;-79
2023/11/01 08:00:48;;;;;;;;;;;;;;;10.40;100.00;98722.06;5091251;28;19965;-79
2023/11/01 08:03:34;;;;;;;;;;;;;;;10.39;100.00;98723.25;5096581;28;19966;-79
2023/11/01 08:06:18;;;;;;;;;;;;;;;10.39;100.00;98716.84;5085263;28;19924;-79
2023/11/01 08:09:02;;;;;;;;;;;;;;;10.41;100.00;98712.59;5106177;28;19980;-79
2023/11/01 08:11:46;;;;;;;;;;;;;;;10.41;100.00;98725.66;5097172;28;19919;-79
2023/11/01 08:14:30;;;;;;;;;;;;;;;10.41;100.00;98758.97;5096869;28;19919;-79
2023/11/01 08:17:14;;;;;;;;;;;;;;;10.42;100.00;98760.56;5068402;28;19922;-79
2023/11/01 08:19:58;;;;;;;;;;;;;;;10.39;100.00;98750.16;5085687;28;19926;-79
2023/11/01 08:22:43;;;;;;;;;;;;;;;10.42;100.00;98766.13;5079762;28;19919;-79
2023/11/01 08:25:27;;;;;;;;;;;;;;;10.40;100.00;98776.78;5076648;28;19924;-79
2023/11/01 08:28:11;;;;;;;;;;;;;;;10.44;100.00;98761.06;5096034;28;19973;-79
2023/11/01 08:30:55;;;;;;;;;;;;;;;10.45;100.00;98746.88;5078609;28;19920;-79
2023/11/01 08:33:39;;;;;;;;;;;;;;;10.46;100.00;98745.69;5077141;28;19966;-79
2023/11/01 08:36:23;;;;;;;;;;;;;;;10.45;100.00;98744.09;5076285;28;19969;-79
2023/11/01 08:39:07;;;;;;;;;;;;;;;10.41;100.00;98757.00;5078031;28;19942;-79
2023/11/01 08:41:51;;;;;;;;;;;;;;;10.44;100.00;98767.41;5082392;28;19961;-79
2023/11/01 08:44:35;;;;;;;;;;;;;;;10.49;100.00;98758.09;5082971;28;20021;-79
2023/11/01 08:47:39;;;;;;;;;;;;;;;10.53;100.00;98750.75;5093218;28;19919;-79
2023/11/01 08:50:23;;;;;;;;;;;;;;;10.57;100.00;98753.66;5082182;28;19919;-79
2023/11/01 08:53:07;;;;;;;;;;;;;;;10.60;100.00;98748.22;5096436;28;19919;-80
2023/11/01 08:55:51;;;;;;;;;;;;;;;10.65;100.00;98745.25;5082414;28;19922;-79
2023/11/01 08:58:35;;;;;;;;;;;;;;;10.67;100.00;98744.91;5078839;28;20357;-79
2023/11/01 09:01:19;;;;;;;;;;;;;;;10.69;100.00;98742.59;5096543;28;19927;-80
2023/11/01 09:04:03;;;;;;;;;;;;;;;10.74;100.00;98739.63;5063523;28;19926;-79
2023/11/01 09:06:47;;;;;;;;;;;;;;;10.75;100.00;98752.34;5078952;28;19982;-79
2023/11/01 09:09:32;;;;;;;;;;;;;;;10.76;100.00;98751.22;5096752;28;19919;-79
2023/11/01 09:12:16;;;;;;;;;;;;;;;10.76;100.00;98745.66;5070555;28;19919;-79
2023/11/01 09:15:01;;;;;;;;;;;;;;;10.79;100.00;98742.22;5095302;28;19919;-76
2023/11/01 09:17:44;;;;;;;;;;;;;;;10.80;100.00;98741.06;5082949;28;19991;-76
2023/11/01 09:20:28;;;;;;;;;;;;;;;10.81;100.00;98731.59;5096528;28;19960;-76
2023/11/01 09:23:12;;;;;;;;;;;;;;;10.84;100.00;98732.88;5097245;28;20020;-77
2023/11/01 09:25:57;;;;;;;;;;;;;;;10.87;100.00;98727.44;5078821;28;19939;-77
2023/11/01 09:28:41;;;;;;;;;;;;;;;10.87;100.00;98730.22;5092525;28;20363;-78
2023/11/01 09:31:25;;;;;;;;;;;;;;;10.90;100.00;98732.31;5080082;28;19943;-77
2023/11/01 09:34:09;;;;;;;;;;;;;;;10.94;100.00;98735.22;5078281;28;20284;-78
2023/11/01 09:36:53;;;;;;;;;;;;;;;10.97;100.00;98731.75;5085164;28;20321;-78
2023/11/01 09:39:36;;;;;;;;;;;;;;;11.00;100.00;98733.06;5070919;28;19922;-79
2023/11/01 09:42:21;;;;;;;;;;;;;;;11.02;100.00;98725.19;5080659;28;19919;-79
2023/11/01 09:45:09;;;;;;;;;;;;;;;11.06;100.00;98737.25;5080375;28;20042;-79
2023/11/01 09:47:53;;;;;;;;;;;;;;;11.10;100.00;98736.22;5115505;27;20280;-79
2023/11/01 09:50:37;;;;;;;;;;;;;;;11.19;100.00;98748.06;5081854;28;19955;-79
2023/11/01 09:53:21;;;;;;;;;;;;;;;11.31;100.00;98750.09;5094336;28;19924;-78
2023/11/01 09:56:05;;;;;;;;;;;;;;;11.44;100.00;98748.16;5095041;28;19938;-78
2023/11/01 09:58:49;;;;;;;;;;;;;;;11.57;100.00;98740.69;5086516;28;19950;-78
2023/11/01 10:01:34;;;;;;;;;;;;;;;11.69;100.00;98753.78;5085455;28;20311;-78
2023/11/01 10:04:19;;;;;;;;;;;;;;;11.84;100.00;98756.72;5088204;28;20003;-79
2023/11/01 10:07:03;;;;;;;;;;;;;;;11.95;100.00;98762.69;5083093;28;19920;-78
2023/11/01 10:09:47;;;;;;;;;;;;;;;12.08;100.00;98767.09;5099608;28;19955;-79
2023/11/01 10:12:32;;;;;;;;;;;;;;;12.19;100.00;98770.22;5079240;28;20013;-78
2023/11/01 10:15:22;;;;;;;;;;;;;;;12.34;100.00;98770.69;5078919;28;19919;-78
2023/11/01 10:18:06;;;;;;;;;;;;;;;12.50;100.00;98785.53;5095145;28;19928;-78
2023/11/01 10:20:50;;;;;;;;;;;;;;;12.61;100.00;98800.63;5079015;28;19919;-78
2023/11/01 10:23:34;;;;;;;;;;;;;;;12.72;100.00;98807.34;5100378;28;20037;-78
2023/11/01 10:26:18;;;;;;;;;;;;;;;12.82;100.00;98808.84;5099261;28;20379;-78
2023/11/01 10:29:02;;;;;;;;;;;;;;;12.90;100.00;98810.69;5083511;28;19941;-78
2023/11/01 10:31:53;;;;;;;;;;;;;;;13.01;100.00;98811.03;5067916;28;19947;-78
2023/11/01 10:34:37;;;;;;;;;;;;;;;13.09;100.00;98815.66;5102277;28;19919;-78
2023/11/01 10:37:23;;;;;;;;;;;;;;;13.15;100.00;98827.38;5083150;28;19931;-78
2023/11/01 10:40:07;;;;;;;;;;;;;;;13.22;100.00;98826.75;5093465;28;19963;-78
2023/11/01 10:42:51;;;;;;;;;;;;;;;13.29;100.00;98821.41;5098625;28;19919;-78
2023/11/01 10:45:35;;;;;;;;;;;;;;;13.34;100.00;98813.63;5080992;28;19923;-78
2023/11/01 10:48:19;;;;;;;;;;;;;;;13.42;100.00;98820.22;5110184;28;19962;-78
2023/11/01 10:51:03;;;;;;;;;;;;;;;13.47;100.00;98808.81;5078503;28;20012;-78
2023/11/01 10:53:47;;;;;;;;;;;;;;;13.55;100.00;98832.94;5109112;28;20267;-78
2023/11/01 10:56:31;;;;;;;;;;;;;;;13.61;100.00;98828.75;5078820;28;19919;-78
2023/11/01 10:59:19;;;;;;;;;;;;;;;13.70;100.00;98833.34;5093154;28;20058;-78
2023/11/01 11:02:17;;;;;;;;;;;;;;;13.76;100.00;98820.75;5111480;28;19919;-78
2023/11/01 11:05:02;;;;;;;;;;;;;;;13.82;100.00;98820.16;5094091;28;19970;-78
2023/11/01 11:07:46;;;;;;;;;;;;;;;13.90;100.00;98823.13;5096326;28;20366;-79
2023/11/01 11:10:33;;;;;;;;;;;;;;;13.98;100.00;98825.75;5085719;28;20382;-79
2023/11/01 11:13:17;;;;;;;;;;;;;;;14.03;100.00;98824.69;5098622;28;19961;-78
2023/11/01 11:16:01;;;;;;;;;;;;;;;14.08;100.00;98811.28;5098544;28;19951;-78
2023/11/01 11:18:45;;;;;;;;;;;;;;;14.15;100.00;98813.47;5077267;28;19955;-78
2023/11/01 11:21:45;;;;;;;;;;;;;;;14.21;100.00;98802.84;5096060;28;19926;-79
2023/11/01 11:24:39;;;;;;;;;;;;;;;14.31;100.00;98797.50;5097744;28;19981;-79
2023/11/01 11:27:42;;;;;;;;;;;;;;;14.41;100.00;98801.75;5098254;28;19919;-78
2023/11/01 11:30:46;;;;;;;;;;;;;;;14.49;100.00;98792.38;5097961;28;19995;-79
2023/11/01 11:33:33;;;;;;;;;;;;;;;14.62;100.00;98793.09;5089485;28;19920;-79
2023/11/01 11:36:18;;;;;;;;;;;;;;;14.71;100.00;98784.53;5078478;28;19975;-79
2023/11/01 11:39:05;;;;;;;;;;;;;;;14.79;100.00;98794.69;5108296;27;20120;-79
2023/11/01 11:41:51;;;;;;;;;;;;;;;14.93;100.00;98794.19;5077824;28;19919;-78
2023/11/01 11:44:52;;;;;;;;;;;;;;;15.07;100.00;98796.50;5091686;28;20007;-79
2023/11/01 11:47:36;;;;;;;;;;;;;;;15.14;100.00;98799.47;5112091;28;19966;-78
2023/11/01 11:50:20;;;;;;;;;;;;;;;15.11;100.00;98789.81;5091856;28;19988;-79
2023/11/01 11:53:04;;;;;;;;;;;;;;;15.15;100.00;98785.09;5091727;28;19919;-78
2023/11/01 11:55:48;;;;;;;;;;;;;;;15.16;100.00;98780.34;5111694;28;19933;-78
2023/11/01 11:58:37;;;;;;;;;;;;;;;15.24;100.00;98792.47;5093264;28;19969;-79
2023/11/01 12:01:22;;;;;;;;;;;;;;;15.27;100.00;98786.97;5077089;28;19985;-79
2023/11/01 12:04:07;;;;;;;;;;;;;;;15.32;100.00;98783.06;5084596;28;19965;-79
2023/11/01 12:06:51;;;;;;;;;;;;;;;15.26;100.00;98774.16;5083072;28;19918;-79
2023/11/01 12:09:35;;;;;;;;;;;;;;;15.37;100.00;98777.97;5077133;28;19951;-79
2023/11/01 12:12:19;;;;;;;;;;;;;;;15.42;100.00;98766.50;5071319;28;19919;-79
2023/11/01 12:15:03;;;;;;;;;;;;;;;15.38;100.00;98760.03;5095582;28;19976;-77
2023/11/01 12:17:47;;;;;;;;;;;;;;;15.24;100.00;98770.94;5076580;28;20008;-79
2023/11/01 12:20:31;;;;;;;;;;;;;;;15.32;100.00;98774.66;5082295;28;19975;-79
2023/11/01 12:23:16;;;;;;;;;;;;;;;15.31;100.00;98776.66;5096217;28;20092;-79
2023/11/01 12:26:09;;;;;;;;;;;;;;;15.33;100.00;98774.31;5096570;28;19923;-79
2023/11/01 12:28:54;;;;;;;;;;;;;;;15.28;100.00;98771.81;5094811;28;19919;-79
2023/11/01 12:31:38;;;;;;;;;;;;;;;15.29;100.00;98779.00;5092626;28;19920;-79
2023/11/01 12:34:22;;;;;;;;;;;;;;;15.33;100.00;98773.50;5096420;28;19969;-79
2023/11/01 12:37:13;;;;;;;;;;;;;;;15.31;100.00;98773.84;5081705;28;19943;-79
2023/11/01 12:40:12;;;;;;;;;;;;;;;15.25;100.00;98778.13;5076381;28;20368;-78
2023/11/01 12:43:11;;;;;;;;;;;;;;;15.23;100.00;98768.50;5097614;28;19926;-79
2023/11/01 12:45:55;;;;;;;;;;;;;;;15.24;100.00;98775.69;5081943;28;19922;-78
2023/11/01 12:48:39;;;;;;;;;;;;;;;15.16;100.00;98778.34;5093289;28;19919;-79
2023/11/01 12:51:23;;;;;;;;;;;;;;;15.12;100.00;98771.88;5090567;28;20050;-79
2023/11/01 12:54:08;;;;;;;;;;;;;;;15.02;100.00;98769.66;5095542;28;19933;-79
2023/11/01 12:56:52;;;;;;;;;;;;;;;14.97;100.00;98762.38;5080366;28;19966;-80
2023/11/01 12:59:36;;;;;;;;;;;;;;;14.90;100.00;98750.22;5077150;28;19935;-79
2023/11/01 13:02:20;;;;;;;;;;;;;;;14.82;100.00;98759.59;5095300;28;19922;-79
2023/11/01 13:05:04;;;;;;;;;;;;;;;14.79;100.00;98758.34;5104507;28;20248;-79
2023/11/01 13:07:49;;;;;;;;;;;;;;;14.76;100.00;98753.50;5101327;28;19976;-79
2023/11/01 13:10:34;;;;;;;;;;;;;;;14.75;100.00;98755.50;5076815;28;19978;-79
2023/11/01 13:13:17;;;;;;;;;;;;;;;14.72;100.00;98761.81;5103343;28;19961;-79
2023/11/01 13:16:01;;;;;;;;;;;;;;;14.71;100.00;98759.41;5088505;28;19918;-79
2023/11/01 13:18:45;;;;;;;;;;;;;;;14.73;100.00;98766.22;5084322;28;20362;-79
2023/11/01 13:21:29;;;;;;;;;;;;;;;14.73;100.00;98769.00;5102739;28;19965;-79
2023/11/01 13:24:13;;;;;;;;;;;;;;;14.70;100.00;98766.94;5088507;28;20428;-79
2023/11/01 13:26:57;;;;;;;;;;;;;;;14.64;100.00;98775.97;5096090;28;19958;-79
2023/11/01 13:29:42;;;;;;;;;;;;;;;14.63;100.00;98743.63;5096507;28;19966;-79
2023/11/01 13:32:26;;;;;;;;;;;;;;;14.57;100.00;98731.09;5084327;28;19934;-79
2023/11/01 13:35:11;;;;;;;;;;;;;;;14.57;100.00;98742.28;5080121;28;19919;-79
2023/11/01 13:37:55;;;;;;;;;;;;;;;14.52;100.00;98744.19;5073673;28;19970;-79
2023/11/01 13:40:40;;;;;;;;;;;;;;;14.46;100.00;98753.19;5097561;28;19998;-79
2023/11/01 13:43:25;;;;;;;;;;;;;;;14.42;100.00;98769.03;5082973;28;20009;-79
2023/11/01 13:46:13;;;;;;;;;;;;;;;14.37;100.00;98778.50;5098279;28;19937;-79
2023/11/01 13:48:59;;;;;;;;;;;;;;;14.30;100.00;98773.56;5098077;28;20439;-79
2023/11/01 13:51:43;;;;;;;;;;;;;;;14.25;100.00;98770.22;5082670;28;20013;-79
2023/11/01 13:54:27;;;;;;;;;;;;;;;14.18;100.00;98759.69;5091090;28;20025;-79
2023/11/01 13:57:11;;;;;;;;;;;;;;;14.13;100.00;98759.16;5088597;28;19919;-79
2023/11/01 13:59:55;;;;;;;;;;;;;;;14.07;100.00;98739.88;5083076;28;20264;-79
2023/11/01 14:02:39;;;;;;;;;;;;;;;13.99;100.00;98746.47;5078074;28;19934;-79
2023/11/01 14:05:23;;;;;;;;;;;;;;;13.95;100.00;98744.75;5087501;28;20333;-79